Terminal Aerodrome Forecast
Issued by NWS

Home | Current Version | Previous Version | Text Only | Print | Product List | Glossary On
Versions: 1 2 3 4 5 6 7 8 9 10 11 12 13 14 15 16 17 18 19 20 21 22 23
000
FTUS45 KCYS 032347
TAFLAR
TAF
KLAR 032347Z 0400/0424 15011KT P6SM VCSH BKN070
     FM040300 14010KT P6SM -SHRA SCT020 BKN040
     FM040600 15012KT 5SM -RA SCT020 BKN040
     FM041200 17012KT P6SM OVC015
     FM041600 13011KT P6SM OVC100=

USA.gov is the U.S. government's official web portal to all federal, state and local government web resources and services.